Time;durP1;ratioP1;P1;durP2;ratioP2;P2;SDS_P1;SDS_P2;PMS_P1;PMS_P2;Temp;Humidity;BMP_temperature;BMP_pressure;BME280_temperature;BME280_humidity;BME280_pressure;Samples;Min_cycle;Max_cycle;Signal;HPM_P1;HPM_P2
2023/09/07 00:00:15;;;;;;;6.32;4.03;;;13.10;99.90;;;-144.05;83.04;56874.31;5048307;28;20543;-85
2023/09/07 00:02:41;;;;;;;5.75;4.18;;;17.20;99.90;;;-144.05;82.89;56855.22;5039502;28;20112;-87
2023/09/07 00:05:08;;;;;;;5.32;4.30;;;;;;;-144.05;83.18;56859.47;5036154;28;20072;-86
2023/09/07 00:07:35;;;;;;;6.18;3.75;;;;;;;-144.05;83.21;56861.56;5035683;28;20029;-87
2023/09/07 00:10:03;;;;;;;6.82;4.18;;;17.10;99.90;;;-144.05;83.24;56859.47;5037377;28;20033;-87
2023/09/07 00:12:29;;;;;;;6.70;4.28;;;12.60;99.90;;;-144.05;83.17;56853.09;5036770;28;20030;-85
2023/09/07 00:14:56;;;;;;;4.72;3.38;;;16.50;99.90;;;-144.05;83.14;56870.06;5036262;28;20401;-83
2023/09/07 00:17:22;;;;;;;5.38;3.97;;;16.30;99.90;;;-144.05;83.39;56861.56;5032838;28;20029;-86
2023/09/07 00:19:50;;;;;;;4.60;3.10;;;;;;;-144.05;83.34;56865.81;5034445;28;20112;-85
2023/09/07 00:22:17;;;;;;;5.50;3.55;;;16.70;99.90;;;-144.05;83.44;56857.34;5033358;28;20022;-85
2023/09/07 00:24:44;;;;;;;5.55;4.10;;;;;;;-144.05;83.69;56857.34;5034380;28;20397;-85
2023/09/07 00:27:11;;;;;;;6.53;3.47;;;12.70;99.90;;;-144.05;83.42;56874.31;5055792;22;20043;-84
2023/09/07 00:29:38;;;;;;;4.97;3.78;;;16.70;99.90;;;-144.05;83.69;56878.56;5060387;28;20029;-84
2023/09/07 00:32:05;;;;;;;6.28;4.10;;;16.80;99.90;;;-144.05;83.91;56870.06;5075247;28;20055;-83
2023/09/07 00:34:31;;;;;;;5.45;3.90;;;12.90;99.90;;;-144.05;83.92;56855.22;5072470;28;20077;-84
2023/09/07 00:36:57;;;;;;;5.63;4.43;;;12.90;99.90;;;-144.05;83.86;56876.44;5056474;28;20060;-83
2023/09/07 00:39:23;;;;;;;6.15;4.05;;;16.50;99.90;;;-144.05;83.82;56865.81;5049641;28;20209;-83
2023/09/07 00:41:49;;;;;;;7.82;4.03;;;16.40;99.90;;;-144.05;83.79;56863.69;5059801;22;20450;-84
2023/09/07 00:44:15;;;;;;;5.82;3.60;;;16.80;99.90;;;-144.05;83.66;56857.34;5056025;28;20033;-83
2023/09/07 00:46:44;;;;;;;5.63;3.60;;;16.70;99.90;;;-144.05;83.58;56878.56;5056355;28;20479;-86
2023/09/07 00:49:12;;;;;;;5.95;3.00;;;15.40;99.90;;;-144.05;83.64;56867.94;5056806;28;20469;-82
2023/09/07 00:51:38;;;;;;;6.63;3.72;;;12.60;99.90;;;-144.05;83.82;56887.06;5055798;28;20029;-85
2023/09/07 00:54:05;;;;;;;8.15;4.18;;;;;;;-144.05;83.72;56874.31;5057621;28;20078;-84
2023/09/07 00:56:32;;;;;;;7.93;3.97;;;15.60;99.90;;;-144.05;83.86;56867.94;5062946;28;20475;-83
2023/09/07 00:58:59;;;;;;;5.72;3.58;;;15.30;99.90;;;-144.05;83.80;56861.56;5063687;28;20098;-84
2023/09/07 01:01:26;;;;;;;7.47;3.97;;;12.30;99.90;;;-144.05;84.49;56865.81;5064051;28;20112;-80
2023/09/07 01:03:52;;;;;;;5.65;4.18;;;12.40;99.90;;;-144.05;85.88;56836.09;5069835;28;20063;-80
2023/09/07 01:06:30;;;;;;;13.85;4.22;;;15.10;99.90;;;-144.05;86.63;56850.97;5068078;28;20029;-85
2023/09/07 01:09:07;;;;;;;6.05;3.75;;;15.10;99.90;;;-144.05;86.72;56870.06;5060400;28;20021;-85
2023/09/07 01:11:37;;;;;;;7.28;4.03;;;15.10;99.90;;;-144.05;86.88;56857.34;5057690;28;20079;-86
2023/09/07 01:14:04;;;;;;;6.80;4.20;;;;;;;-144.05;86.95;56853.09;5057106;28;20453;-85
2023/09/07 01:16:35;;;;;;;6.47;4.88;;;;;;;-144.05;87.11;56829.72;5056472;28;20029;-84
2023/09/07 01:19:02;;;;;;;6.93;4.70;;;;;;;-144.05;87.01;56855.22;5061656;28;20041;-84
2023/09/07 01:21:36;;;;;;;6.03;4.20;;;16.10;99.90;;;-144.05;87.35;56872.19;5061091;28;20468;-82
2023/09/07 01:24:11;;;;;;;7.35;4.10;;;15.00;99.90;;;-144.05;87.29;56855.22;5061864;28;20033;-84
2023/09/07 01:26:38;;;;;;;5.45;4.00;;;15.00;99.90;;;-144.05;87.42;56855.22;5060891;28;20484;-84
2023/09/07 01:29:07;;;;;;;4.32;3.67;;;12.50;99.90;;;-144.05;87.33;56874.31;5061622;28;20392;-83
2023/09/07 01:31:39;;;;;;;4.97;3.90;;;14.90;99.90;;;-144.05;87.37;56857.34;5062022;28;20025;-84
2023/09/07 01:34:08;;;;;;;5.07;3.90;;;16.20;99.90;;;-144.05;86.46;56838.22;5061343;28;20029;-85
2023/09/07 01:36:35;;;;;;;5.70;4.05;;;;;;;-144.05;87.22;56876.44;5062877;28;20395;-84
2023/09/07 01:39:05;;;;;;;5.35;3.92;;;;;;;-144.05;87.44;56865.81;5060985;28;20037;-83
2023/09/07 01:41:31;;;;;;;6.10;4.30;;;16.40;99.90;;;-144.05;87.62;56859.47;5060524;28;20043;-84
2023/09/07 01:43:57;;;;;;;8.27;4.68;;;16.10;99.90;;;-144.05;87.85;56848.84;5062560;28;20024;-83
2023/09/07 01:46:23;;;;;;;6.35;3.92;;;15.90;99.90;;;-144.05;87.88;56874.31;5062238;28;20460;-83
2023/09/07 01:48:49;;;;;;;5.53;3.60;;;;;;;-144.05;88.13;56853.09;5062909;28;20036;-83
2023/09/07 01:51:15;;;;;;;6.30;4.05;;;;;;;-144.05;88.00;56863.69;5061061;28;20029;-84
2023/09/07 01:53:41;;;;;;;5.85;4.13;;;;;;;-144.05;88.21;56844.59;5060889;28;20358;-84
2023/09/07 02:01:26;;;;;;;5.55;4.25;;;14.80;99.90;;;-144.05;88.23;56861.56;5007023;28;20567;-87
2023/09/07 02:03:53;;;;;;;5.45;3.42;;;15.90;99.90;;;-144.05;88.14;56859.47;5014504;28;20033;-87
2023/09/07 02:06:19;;;;;;;4.07;3.47;;;;;;;-144.05;88.17;56836.09;5014312;28;20029;-86
2023/09/07 02:08:45;;;;;;;5.80;3.65;;;15.90;99.90;;;-144.05;86.44;56853.09;5014100;28;20481;-86
2023/09/07 02:13:42;;;;;;;5.15;4.13;;;15.90;99.90;;;-144.05;85.77;56874.31;5010295;28;20456;-84
2023/09/07 02:16:09;;;;;;;5.90;3.70;;;16.30;99.90;;;-144.05;85.47;56861.56;4995273;28;20304;-83
2023/09/07 02:18:39;;;;;;;5.57;4.07;;;14.60;99.90;;;-144.05;85.36;56855.22;5012848;28;20037;-81
2023/09/07 02:21:06;;;;;;;9.55;4.75;;;16.40;99.90;;;-144.05;85.12;56895.56;5011900;28;20079;-82
2023/09/07 02:23:33;;;;;;;7.20;4.13;;;15.90;99.90;;;-144.05;85.16;56882.81;5010909;28;20033;-82
2023/09/07 02:25:59;;;;;;;5.50;3.83;;;14.60;99.90;;;-144.05;85.08;56882.81;4995154;28;20541;-82
2023/09/07 02:28:26;;;;;;;4.63;3.70;;;12.00;99.90;;;-144.05;85.13;56889.19;5012780;28;20057;-81
2023/09/07 02:30:53;;;;;;;6.15;4.00;;;16.20;99.90;;;-144.05;85.10;56897.69;5012521;28;20207;-81
2023/09/07 02:33:19;;;;;;;6.13;3.95;;;15.90;99.90;;;-144.05;85.05;56876.44;5012291;28;20029;-82
2023/09/07 02:35:45;;;;;;;5.47;3.92;;;11.50;99.90;;;-144.05;85.19;56867.94;4995014;28;20034;-80
2023/09/07 02:38:11;;;;;;;5.15;3.97;;;11.50;99.90;;;-144.05;85.14;56872.19;4994796;28;20029;-82
2023/09/07 02:40:44;;;;;;;4.68;3.85;;;11.50;99.90;;;-144.05;85.16;56897.69;5012895;28;20029;-81
2023/09/07 02:43:11;;;;;;;6.25;4.10;;;15.70;99.90;;;-144.05;85.13;56865.81;5012464;28;20026;-81
2023/09/07 02:45:38;;;;;;;6.38;4.45;;;;;;;-144.05;85.12;56887.06;5011169;28;20030;-80
2023/09/07 02:48:05;;;;;;;7.65;4.75;;;12.20;99.90;;;-144.05;85.21;56867.94;5012442;28;20452;-82
2023/09/07 02:50:34;;;;;;;6.93;4.68;;;16.00;99.90;;;-144.05;85.29;56850.97;5012091;28;20033;-80
2023/09/07 02:53:01;;;;;;;4.90;4.05;;;15.50;99.90;;;-144.05;85.28;56882.81;5012145;28;20088;-82
2023/09/07 02:55:28;;;;;;;7.03;4.43;;;15.40;99.90;;;-144.05;85.25;56878.56;4994401;28;20022;-82
2023/09/07 02:57:55;;;;;;;7.07;4.75;;;16.10;99.90;;;-144.05;85.37;56859.47;5012155;28;20034;-83
2023/09/07 03:00:21;;;;;;;7.45;4.32;;;15.60;99.90;;;-144.05;85.34;56880.69;5011855;28;20430;-81
2023/09/07 03:02:48;;;;;;;5.97;4.10;;;15.60;99.90;;;-144.05;85.37;56872.19;4994105;28;20034;-82
2023/09/07 03:05:15;;;;;;;4.78;3.95;;;15.50;99.90;;;-144.05;85.32;56855.22;5012831;28;20029;-82
2023/09/07 03:07:45;;;;;;;5.65;4.03;;;;;;;-144.05;85.27;56897.69;5015400;28;20445;-82
2023/09/07 03:10:11;;;;;;;10.23;5.03;;;11.50;99.90;;;-144.05;85.55;56861.56;4998050;28;20030;-84
2023/09/07 03:12:37;;;;;;;8.13;5.10;;;;;;;-144.05;85.56;56880.69;5015481;28;20038;-84
2023/09/07 03:15:05;;;;;;;6.18;4.22;;;16.00;99.90;;;-144.05;85.41;56880.69;5016014;28;20477;-86
2023/09/07 03:17:32;;;;;;;8.35;4.85;;;;;;;-144.05;85.49;56861.56;4998807;28;20038;-81
2023/09/07 03:19:58;;;;;;;6.47;4.30;;;11.60;99.90;;;-144.05;85.41;56848.84;5016145;28;20041;-83
2023/09/07 03:22:24;;;;;;;6.03;4.32;;;15.80;99.90;;;-144.05;85.46;56870.06;5014297;28;20129;-82
2023/09/07 03:24:51;;;;;;;6.95;4.68;;;16.10;99.90;;;-144.05;85.73;56846.72;5016475;28;20446;-84
2023/09/07 03:27:17;;;;;;;8.35;4.03;;;15.70;99.90;;;-144.05;85.50;56882.81;5017592;28;20105;-82
2023/09/07 03:29:44;;;;;;;5.78;4.18;;;14.00;99.90;;;-144.05;85.96;56870.06;4998841;28;20061;-83
2023/09/07 03:32:10;;;;;;;6.65;4.25;;;15.80;99.90;;;-144.05;85.81;56848.84;5016734;28;20030;-81
2023/09/07 03:34:36;;;;;;;7.50;4.25;;;15.50;99.90;;;-144.05;85.82;56870.06;5014908;28;20480;-80
2023/09/07 03:37:05;;;;;;;6.65;4.32;;;11.00;99.90;;;-144.05;85.89;56840.34;4998714;28;20098;-82
2023/09/07 03:39:32;;;;;;;7.07;4.40;;;;;;;-144.05;85.68;56876.44;5015921;28;20037;-83
2023/09/07 03:41:58;;;;;;;7.53;4.65;;;13.90;99.90;;;-144.05;85.74;56870.06;5016607;28;20117;-83
2023/09/07 03:44:24;;;;;;;7.45;4.93;;;10.80;99.90;;;-144.05;86.02;56876.44;4999163;28;20057;-82
2023/09/07 03:46:50;;;;;;;10.52;4.82;;;11.20;99.90;;;-144.05;85.86;56876.44;5015380;28;20026;-82
2023/09/07 03:49:16;;;;;;;7.50;4.68;;;;;;;-144.05;85.86;56857.34;5014787;28;20543;-83
2023/09/07 03:51:42;;;;;;;7.25;4.60;;;16.00;99.90;;;-144.05;85.74;56872.19;4998057;28;20434;-81
2023/09/07 03:54:08;;;;;;;6.45;4.50;;;14.00;99.90;;;-144.05;85.67;56884.94;5019632;28;20064;-84
2023/09/07 03:56:34;;;;;;;6.78;4.60;;;;;;;-144.05;85.92;56874.31;5019555;28;20030;-82
2023/09/07 03:59:00;;;;;;;8.48;4.65;;;15.30;99.90;;;-144.05;85.87;56874.31;5019484;28;20026;-84
2023/09/07 04:01:26;;;;;;;5.20;4.40;;;;;;;-144.05;86.27;56857.34;5018456;28;20037;-85
2023/09/07 04:03:52;;;;;;;6.75;4.38;;;;;;;-144.05;85.99;56859.47;5016937;28;20041;-84
2023/09/07 04:06:18;;;;;;;7.20;4.75;;;15.60;99.90;;;-144.05;85.94;56872.19;5018776;28;20025;-80
2023/09/07 04:08:45;;;;;;;6.68;4.30;;;;;;;-144.05;85.97;56874.31;5018949;28;20052;-82
2023/09/07 04:11:11;;;;;;;7.20;4.80;;;;;;;-144.05;86.02;56861.56;5018758;28;20026;-81
2023/09/07 04:13:37;;;;;;;5.88;4.43;;;15.60;99.90;;;-144.05;86.18;56867.94;5018230;28;20421;-81
2023/09/07 04:16:03;;;;;;;5.90;4.25;;;15.80;99.90;;;-144.05;85.97;56865.81;5018804;28;20061;-82
2023/09/07 04:18:30;;;;;;;8.20;4.28;;;;;;;-144.05;86.01;56887.06;5018749;28;20042;-83
2023/09/07 04:21:06;;;;;;;6.10;4.55;;;15.60;99.90;;;-144.05;86.09;56861.56;5018615;28;20101;-83
2023/09/07 04:23:34;;;;;;;6.47;4.25;;;15.70;99.90;;;-144.05;85.92;56859.47;5016509;28;20099;-82
2023/09/07 04:26:11;;;;;;;8.82;4.60;;;13.70;99.90;;;-144.05;86.17;56867.94;5018378;28;20025;-85
2023/09/07 04:28:38;;;;;;;8.27;4.78;;;15.80;99.90;;;-144.05;85.91;56870.06;5018780;28;20105;-81
2023/09/07 04:31:06;;;;;;;7.47;4.47;;;15.50;99.90;;;-144.05;86.00;56861.56;5019473;28;20036;-82
2023/09/07 04:33:36;;;;;;;7.40;4.78;;;13.50;99.90;;;-144.05;85.98;56859.47;5018046;28;20036;-82
2023/09/07 04:36:14;;;;;;;6.93;4.15;;;10.90;99.90;;;-144.05;86.06;56865.81;5020100;28;20417;-84
2023/09/07 04:38:41;;;;;;;7.60;4.47;;;15.80;99.90;;;-144.05;86.11;56901.94;5001759;28;20040;-83
2023/09/07 04:41:09;;;;;;;5.13;4.03;;;10.60;99.90;;;-144.05;86.00;56861.56;5001632;28;20045;-83
2023/09/07 04:43:37;;;;;;;10.20;4.90;;;;;;;-144.05;86.07;56891.31;5018774;28;20030;-83
2023/09/07 04:46:03;;;;;;;10.20;5.72;;;;;;;-144.05;86.18;56861.56;5019603;28;20037;-81
2023/09/07 04:48:29;;;;;;;7.53;5.18;;;11.00;99.90;;;-144.05;86.16;56857.34;5019153;28;20116;-84
2023/09/07 04:51:00;;;;;;;6.53;5.07;;;13.50;99.90;;;-144.05;86.17;56844.59;5001538;28;20397;-82
2023/09/07 04:53:30;;;;;;;7.00;5.40;;;15.90;99.90;;;-144.05;86.19;56895.56;5018362;28;20076;-82
2023/09/07 04:55:57;;;;;;;6.60;4.80;;;10.80;99.90;;;-144.05;86.14;56861.56;5018563;28;20069;-80
2023/09/07 04:58:24;;;;;;;7.85;4.55;;;15.40;99.90;;;-144.05;86.22;56846.72;5017745;28;20026;-81
2023/09/07 05:00:50;;;;;;;6.95;4.80;;;;;;;-144.05;86.10;56831.84;4999942;28;20064;-85
2023/09/07 05:03:16;;;;;;;8.60;5.00;;;15.60;99.90;;;-144.05;86.15;56865.81;4999758;28;20022;-81
2023/09/07 05:05:46;;;;;;;7.40;5.07;;;15.70;99.90;;;-144.05;86.34;56884.94;5016405;28;20084;-80
2023/09/07 05:08:12;;;;;;;9.88;5.20;;;;;;;-144.05;86.14;56848.84;4999508;28;20084;-83
2023/09/07 05:10:39;;;;;;;6.93;4.88;;;;;;;-144.05;86.24;56867.94;5017138;28;20030;-84
2023/09/07 05:13:04;;;;;;;5.78;4.40;;;15.80;99.90;;;-144.05;86.76;56874.31;5018540;28;20069;-83
2023/09/07 05:15:30;;;;;;;8.57;5.32;;;;;;;-144.05;86.50;56878.56;5018549;28;20033;-80
2023/09/07 05:17:57;;;;;;;8.07;6.10;;;;;;;-144.05;86.41;56884.94;5000292;28;20030;-81
2023/09/07 05:20:22;;;;;;;9.75;5.20;;;10.70;99.90;;;-144.05;86.29;56865.81;5018612;28;20478;-81
2023/09/07 05:22:48;;;;;;;6.25;5.18;;;15.40;99.90;;;-144.05;86.13;56884.94;5017743;28;20068;-83
2023/09/07 05:25:14;;;;;;;6.40;5.47;;;15.60;99.90;;;-144.05;86.32;56878.56;5018281;28;20038;-83
2023/09/07 05:27:40;;;;;;;9.93;5.57;;;;;;;-144.05;86.14;56846.72;5016929;28;20026;-84
2023/09/07 05:30:07;;;;;;;10.10;6.03;;;15.40;99.90;;;-144.05;86.40;56876.44;5000197;28;20022;-84
2023/09/07 05:32:33;;;;;;;9.68;5.20;;;13.70;99.90;;;-144.05;86.23;56887.06;5017505;28;20030;-83
2023/09/07 05:34:59;;;;;;;12.85;7.45;;;11.20;99.90;;;-144.05;86.23;56889.19;5019035;28;20030;-81
2023/09/07 05:37:24;;;;;;;11.88;6.97;;;15.90;99.90;;;-144.05;86.63;56870.06;5017950;28;20030;-82
2023/09/07 05:39:50;;;;;;;10.82;7.05;;;15.90;99.90;;;-144.05;86.64;56882.81;5018562;28;20295;-82
2023/09/07 05:42:16;;;;;;;13.25;7.70;;;16.10;99.90;;;-144.05;86.56;56874.31;4998408;28;20072;-81
2023/09/07 05:44:42;;;;;;;10.68;6.18;;;15.70;99.90;;;-144.05;86.36;56889.19;5016395;28;20457;-80
2023/09/07 05:47:08;;;;;;;9.63;6.32;;;11.90;99.90;;;-144.05;86.47;56865.81;5015433;28;20055;-81
2023/09/07 05:49:34;;;;;;;8.02;5.68;;;12.50;99.90;;;-144.05;86.23;56870.06;5016210;28;20038;-82
2023/09/07 05:52:00;;;;;;;11.68;6.05;;;15.40;99.90;;;-144.05;86.47;56884.94;5016604;28;20108;-81
2023/09/07 05:54:25;;;;;;;7.90;5.20;;;16.10;99.90;;;-144.05;86.23;56848.84;5014493;28;20122;-80
2023/09/07 05:56:51;;;;;;;7.25;5.13;;;16.30;99.90;;;-144.05;86.14;56853.09;5015785;28;20037;-81
2023/09/07 05:59:18;;;;;;;10.65;6.00;;;;;;;-144.05;86.16;56897.69;4998306;28;20133;-80
2023/09/07 06:01:44;;;;;;;8.32;5.10;;;16.80;99.90;;;-144.05;86.67;56870.06;5017563;28;20025;-82
2023/09/07 06:04:10;;;;;;;9.02;5.70;;;13.00;99.90;;;-144.05;87.05;56889.19;5015058;28;20444;-80
2023/09/07 06:06:36;;;;;;;8.63;4.93;;;13.30;99.90;;;-144.05;87.06;56878.56;5017427;28;20077;-81
2023/09/07 06:09:03;;;;;;;12.98;5.88;;;13.80;99.90;;;-144.05;86.00;56878.56;4999618;28;20394;-84
2023/09/07 06:11:31;;;;;;;11.07;5.63;;;16.30;99.90;;;-144.05;83.18;56895.56;5017981;28;20455;-81
2023/09/07 06:13:58;;;;;;;8.40;5.53;;;17.10;99.90;;;-144.05;81.52;56887.06;4997809;28;20030;-83
2023/09/07 06:16:23;;;;;;;10.07;5.00;;;14.50;99.90;;;-144.05;79.35;56889.19;5014286;28;20532;-83
2023/09/07 06:18:49;;;;;;;7.72;4.55;;;18.40;99.90;;;-144.05;77.23;56887.06;4998372;28;20046;-81
2023/09/07 06:21:15;;;;;;;9.77;4.88;;;14.70;99.90;;;-144.05;75.56;56895.56;5014704;28;20093;-82
2023/09/07 06:23:42;;;;;;;7.75;4.70;;;;;;;-144.05;73.75;56918.94;5016587;28;20113;-85
2023/09/07 06:26:08;;;;;;;9.98;4.95;;;19.00;99.90;;;-144.05;71.25;56927.41;5017418;28;20033;-81
2023/09/07 06:28:33;;;;;;;10.02;5.40;;;19.80;99.90;;;-144.05;67.27;56931.66;4999047;28;20037;-85
2023/09/07 06:30:59;;;;;;;10.50;4.97;;;20.30;99.90;;;-144.05;65.79;56927.41;5016162;28;20411;-84
2023/09/07 06:33:25;;;;;;;10.70;5.00;;;20.80;99.90;;;-144.05;65.19;56916.81;4997753;28;20045;-83
2023/09/07 06:35:51;;;;;;;8.07;5.45;;;;;;;-144.05;62.74;56918.94;4997265;28;20060;-82
2023/09/07 06:38:17;;;;;;;10.85;5.97;;;20.60;99.90;;;-144.05;62.17;56918.94;5027515;28;20029;-78
2023/09/07 06:40:49;;;;;;;9.23;5.22;;;21.10;99.90;;;-144.05;61.08;56908.31;5035440;28;20037;-81
2023/09/07 06:43:15;;;;;;;10.93;5.15;;;20.50;99.90;;;-144.05;60.15;56929.53;5016890;28;20018;-80
2023/09/07 06:45:41;;;;;;;9.77;5.00;;;17.60;99.90;;;-144.05;60.32;56955.03;5033581;28;20026;-84
2023/09/07 06:48:07;;;;;;;9.75;4.82;;;21.50;99.90;;;-144.05;60.12;56931.66;5021285;28;20053;-83
2023/09/07 06:50:33;;;;;;;8.13;4.68;;;21.60;99.90;;;-144.05;59.23;56940.16;5014831;28;20022;-81
2023/09/07 06:52:59;;;;;;;10.18;4.85;;;21.30;99.90;;;-144.05;59.12;56959.28;5015159;28;20034;-82
2023/09/07 06:55:25;;;;;;;10.50;4.60;;;;;;;-144.05;59.35;56946.53;4999291;28;20033;-82
2023/09/07 06:57:53;;;;;;;6.57;4.30;;;22.30;99.90;;;-144.05;58.93;56967.78;5015398;28;20077;-80
2023/09/07 07:00:20;;;;;;;7.38;4.28;;;;;;;-144.05;58.33;56955.03;5016700;28;20055;-84
2023/09/07 07:02:46;;;;;;;8.98;4.30;;;;;;;-144.05;56.94;56948.66;5014295;28;20485;-84
2023/09/07 07:05:12;;;;;;;8.80;4.28;;;18.80;99.90;;;-144.05;56.71;56972.03;5014491;28;20034;-83
2023/09/07 07:07:37;;;;;;;8.60;4.13;;;23.20;99.90;;;-144.05;56.87;56959.28;5014158;28;20112;-83
2023/09/07 07:10:04;;;;;;;9.05;3.95;;;23.20;99.90;;;-144.05;56.28;56961.41;5015102;28;20041;-81
2023/09/07 07:12:34;;;;;;;8.10;4.35;;;23.40;99.90;;;-144.05;55.76;56959.28;5013719;28;20411;-84
2023/09/07 07:15:04;;;;;;;9.25;4.30;;;;;;;-144.05;55.02;56986.91;5014177;28;20025;-83
2023/09/07 07:17:29;;;;;;;5.53;3.90;;;23.60;99.90;;;-144.05;55.54;56980.53;5015846;28;20061;-85
2023/09/07 07:19:55;;;;;;;7.20;4.70;;;19.70;99.90;;;-144.05;56.74;56963.53;5016425;28;20034;-81
2023/09/07 07:22:21;;;;;;;9.48;4.40;;;24.00;99.90;;;-144.05;57.17;56955.03;5014081;28;20029;-81
2023/09/07 07:24:47;;;;;;;7.40;4.45;;;;;;;-144.05;56.41;56991.13;5016039;28;20053;-83
2023/09/07 07:27:15;;;;;;;6.38;4.43;;;;;;;-144.05;55.99;56997.50;5018833;28;20482;-81
2023/09/07 07:29:40;;;;;;;5.78;4.10;;;24.10;99.90;;;-144.05;55.46;56999.63;5002354;28;20036;-83
2023/09/07 07:32:06;;;;;;;8.05;4.00;;;;;;;-144.05;54.29;57006.00;5019096;28;20018;-84
2023/09/07 07:34:32;;;;;;;7.38;3.88;;;25.00;99.90;;;-144.05;54.15;57003.88;5019196;28;20025;-84
2023/09/07 07:36:58;;;;;;;5.47;3.63;;;20.70;99.90;;;-144.05;54.13;57018.75;5019548;28;20058;-83
2023/09/07 07:39:24;;;;;;;9.50;4.63;;;24.80;99.90;;;-144.05;53.91;57003.88;5018212;28;20042;-81
2023/09/07 07:41:50;;;;;;;7.20;4.40;;;25.10;99.90;;;-144.05;53.54;56997.50;5020575;28;20252;-81
2023/09/07 07:44:16;;;;;;;7.30;4.90;;;25.40;99.90;;;-144.05;53.71;57035.75;5019097;28;20030;-83
2023/09/07 07:46:41;;;;;;;7.80;4.10;;;25.50;99.90;;;-144.05;53.52;57023.00;5020700;28;20080;-82
2023/09/07 07:49:07;;;;;;;7.93;4.10;;;25.20;99.90;;;-144.05;53.06;57014.50;5022749;28;20029;-83
2023/09/07 07:51:33;;;;;;;8.55;4.25;;;25.20;99.90;;;-144.05;52.07;57029.38;5022063;28;20226;-84
2023/09/07 07:53:59;;;;;;;8.80;4.43;;;25.30;99.90;;;-144.05;51.97;57020.88;5022974;28;20037;-85
2023/09/07 07:56:25;;;;;;;9.48;4.57;;;25.80;99.90;;;-144.05;51.73;57048.50;5004853;28;20037;-83
2023/09/07 07:58:51;;;;;;;8.40;4.65;;;;;;;-144.05;50.83;57050.63;5002826;28;20040;-82
2023/09/07 08:01:20;;;;;;;8.40;4.55;;;22.30;99.90;;;-144.05;51.00;57069.72;5002107;28;20117;-83
2023/09/07 08:03:46;;;;;;;8.88;4.90;;;22.30;99.90;;;-144.05;48.10;57065.47;5020315;28;20105;-82
2023/09/07 08:06:12;;;;;;;5.53;3.70;;;23.60;99.90;;;-144.05;48.31;57046.38;5002195;28;20029;-81
2023/09/07 08:08:40;;;;;;;8.95;4.22;;;25.60;99.90;;;-144.05;47.33;57069.72;5002710;28;20030;-82
2023/09/07 08:11:06;;;;;;;8.35;3.80;;;27.30;99.90;;;-144.05;47.26;57067.59;5020471;28;20033;-83
2023/09/07 08:13:34;;;;;;;6.82;4.38;;;27.50;99.90;;;-144.05;46.26;57080.34;5046957;23;20092;-88
2023/09/07 08:16:02;;;;;;;11.48;4.25;;;26.10;99.90;;;-144.05;46.01;57099.47;5015600;28;20503;-88
2023/09/07 08:18:30;;;;;;;7.57;3.70;;;;;;;-144.05;43.60;57076.09;5015952;28;20407;-85
2023/09/07 08:20:56;;;;;;;6.47;3.70;;;;;;;-144.05;44.04;57129.22;5000142;28;20030;-89
2023/09/07 08:23:23;;;;;;;6.57;3.60;;;;;;;-144.05;42.28;57137.69;5001233;28;20058;-88
2023/09/07 08:25:52;;;;;;;5.95;3.90;;;;;;;-144.05;41.77;57099.47;5011185;28;20033;-84
2023/09/07 08:28:21;;;;;;;6.93;3.70;;;;;;;-144.05;41.60;57124.97;5011258;28;20034;-89
2023/09/07 08:30:53;;;;;;;7.20;3.40;;;27.10;99.90;;;-144.05;41.29;57133.44;4996536;28;20040;-88
2023/09/07 08:33:28;;;;;;;9.10;3.95;;;;;;;-144.05;40.03;57158.94;5012518;28;20026;-90
2023/09/07 08:35:56;;;;;;;;;;;27.40;99.90;;;-144.05;38.77;57133.44;4996556;28;20445;-90
2023/09/07 08:38:27;;;;;;;8.88;3.67;;;;;;;-144.05;38.65;57122.84;4996154;28;19933;-88
2023/09/07 08:41:05;;;;;;;7.90;3.83;;;29.00;99.90;;;-144.05;37.87;57144.06;4995117;28;20030;-90
2023/09/07 08:43:40;;;;;;;8.85;3.88;;;27.50;99.90;;;-144.05;36.54;57152.56;4997594;28;20437;-90
2023/09/07 08:46:20;;;;;;;8.70;4.00;;;27.70;99.90;;;-144.05;36.28;57152.56;5012589;28;20506;-91
2023/09/07 08:48:49;;;;;;;7.82;4.22;;;28.70;99.90;;;-144.05;36.30;57192.94;4996667;28;20031;-89
2023/09/07 08:51:19;;;;;;;6.35;3.58;;;28.10;99.90;;;-144.05;36.48;57188.69;4997436;28;20022;-88
2023/09/07 08:53:46;;;;;;;5.53;3.83;;;;;;;-144.05;35.97;57199.31;4996080;28;20052;-90
2023/09/07 08:56:13;;;;;;;5.32;3.95;;;28.40;99.90;;;-144.05;35.20;57201.44;4995501;28;20072;-89
2023/09/07 08:58:40;;;;;;;5.55;4.15;;;;;;;-144.05;35.21;57205.66;4998329;28;20515;-86
2023/09/07 09:01:08;;;;;;;7.03;3.72;;;;;;;-144.05;34.85;57209.91;5013533;28;20038;-91
2023/09/07 09:03:35;;;;;;;5.53;3.58;;;;;;;-144.05;33.33;57246.03;4998774;28;20473;-87
2023/09/07 09:06:05;;;;;;;4.97;3.35;;;28.90;99.90;;;-144.05;33.79;57222.66;5006239;28;20045;-87
2023/09/07 09:08:49;;;;;;;5.00;3.45;;;29.00;99.90;;;-144.05;33.47;57226.91;5008418;28;20351;-90
2023/09/07 09:11:17;;;;;;;4.68;3.22;;;29.20;99.90;;;-144.05;33.21;57252.41;5009120;28;20041;-90
2023/09/07 09:13:44;;;;;;;5.97;3.05;;;;;;;-144.05;33.54;57218.41;4999960;28;20358;-89
2023/09/07 09:16:14;;;;;;;8.05;3.20;;;29.20;99.80;;;-144.05;33.28;57237.53;5000130;28;20026;-88
2023/09/07 09:18:52;;;;;;;5.13;3.33;;;26.90;97.80;;;-144.05;32.78;57229.03;5001739;28;20086;-89
2023/09/07 09:21:24;;;;;;;8.57;3.75;;;25.10;98.20;;;-144.05;33.25;57250.28;5005340;28;20033;-89
2023/09/07 09:23:57;;;;;;;5.30;3.28;;;29.60;99.70;;;-144.05;33.40;57246.03;5009730;28;20026;-85
2023/09/07 09:26:23;;;;;;;5.20;3.30;;;;;;;-144.05;33.13;57243.91;5006503;28;20026;-89
2023/09/07 09:28:53;;;;;;;5.10;3.88;;;;;;;-144.05;33.06;57248.16;5003274;28;20038;-91
2023/09/07 09:31:20;;;;;;;4.45;3.38;;;;;;;-144.05;34.20;57218.41;5002125;28;20023;-89
2023/09/07 09:33:53;;;;;;;8.30;3.72;;;29.40;98.90;;;-144.05;33.76;57233.28;5004664;28;20038;-87
2023/09/07 09:36:20;;;;;;;5.05;3.22;;;;;;;-144.05;33.67;57246.03;5002173;28;20054;-86
2023/09/07 09:38:53;;;;;;;5.65;3.35;;;;;;;-144.05;34.08;57231.16;5002496;28;20034;-85
2023/09/07 09:41:23;;;;;;;4.20;3.17;;;;;;;-144.05;33.28;57258.78;5002720;28;20040;-89
2023/09/07 09:43:51;;;;;;;4.22;3.30;;;;;;;-144.05;34.75;57248.16;5002005;28;20022;-89
2023/09/07 09:46:18;;;;;;;5.53;3.47;;;;;;;-144.05;33.46;57248.16;5002822;28;20060;-86
2023/09/07 09:48:45;;;;;;;5.13;3.42;;;;;;;-144.05;35.10;57214.16;5000954;28;20456;-87
2023/09/07 09:51:14;;;;;;;5.05;3.08;;;;;;;-144.05;35.61;57256.66;5002969;28;20026;-89
2023/09/07 09:53:42;;;;;;;5.60;3.40;;;;;;;-144.05;34.69;57248.16;5002302;28;20034;-92
2023/09/07 09:56:08;;;;;;;5.03;3.75;;;;;;;-144.05;35.22;57226.91;5000407;28;20468;-91
2023/09/07 09:58:34;;;;;;;6.13;3.45;;;;;;;-144.05;34.71;57233.28;4999887;28;20033;-85
2023/09/07 10:01:05;;;;;;;5.70;3.08;;;29.70;99.90;;;-144.05;34.60;57260.91;5000994;28;20069;-87
2023/09/07 10:03:47;;;;;;;7.43;3.20;;;;;;;-144.05;34.41;57265.16;5002921;28;20037;-90
2023/09/07 10:06:29;;;;;;;6.38;3.15;;;;;;;-144.05;34.25;57220.53;5003832;28;20045;-89
2023/09/07 10:09:06;;;;;;;6.80;3.45;;;;;;;-144.05;34.81;57284.28;5018220;28;20102;-90
2023/09/07 10:11:38;;;;;;;6.80;3.50;;;;;;;-144.05;34.96;57269.41;5001926;28;20041;-90
2023/09/07 10:14:07;;;;;;;7.45;3.53;;;;;;;-144.05;34.27;57269.41;5003163;28;20030;-87
2023/09/07 10:16:52;;;;;;;4.75;3.25;;;30.40;97.60;;;-144.05;33.39;57314.00;5000273;28;20076;-87
2023/09/07 10:19:22;;;;;;;5.05;3.72;;;;;;;-144.05;33.15;57333.13;5001750;28;20033;-85
2023/09/07 10:21:50;;;;;;;4.60;3.47;;;;;;;-144.05;33.02;57331.00;5009968;28;20053;-86
2023/09/07 10:24:35;;;;;;;4.75;3.22;;;;;;;-144.05;32.50;57324.63;5011195;28;20050;-86
2023/09/07 10:27:08;;;;;;;4.18;3.70;;;;;;;-144.05;33.65;57297.00;5001791;28;20030;-88
2023/09/07 10:29:54;;;;;;;7.55;3.65;;;30.80;95.90;;;-144.05;32.36;57335.25;5001198;28;20578;-89
2023/09/07 10:32:20;;;;;;;4.38;3.60;;;;;;;-144.05;33.28;57299.13;5003496;28;20034;-88
2023/09/07 10:34:47;;;;;;;5.72;3.15;;;;;;;-144.05;32.94;57324.63;5014893;28;20029;-82
2023/09/07 10:37:15;;;;;;;6.25;3.28;;;;;;;-144.05;32.35;57322.50;5007787;28;20435;-86